sensor_id;sensor_type;location;lat;lon;timestamp;P1;durP1;ratioP1;P2;durP2;ratioP2
14939;SDS011;11825;51.898;8.202;2022-07-23T00:00:23;9.80;;;8.70;;
14939;SDS011;11825;51.898;8.202;2022-07-23T00:05:25;8.03;;;6.77;;
14939;SDS011;11825;51.898;8.202;2022-07-23T00:10:27;8.93;;;6.70;;
14939;SDS011;11825;51.898;8.202;2022-07-23T00:15:29;8.77;;;7.07;;
14939;SDS011;11825;51.898;8.202;2022-07-23T00:20:30;8.37;;;7.07;;
14939;SDS011;11825;51.898;8.202;2022-07-23T00:25:32;6.90;;;6.23;;
14939;SDS011;11825;51.898;8.202;2022-07-23T00:30:34;7.23;;;6.60;;
14939;SDS011;11825;51.898;8.202;2022-07-23T00:35:37;7.90;;;7.20;;
14939;SDS011;11825;51.898;8.202;2022-07-23T00:40:41;8.17;;;7.27;;
14939;SDS011;11825;51.898;8.202;2022-07-23T00:45:43;7.17;;;6.47;;
14939;SDS011;11825;51.898;8.202;2022-07-23T00:50:45;7.60;;;6.43;;
14939;SDS011;11825;51.898;8.202;2022-07-23T00:55:47;8.33;;;7.53;;
14939;SDS011;11825;51.898;8.202;2022-07-23T01:00:50;9.30;;;7.23;;
14939;SDS011;11825;51.898;8.202;2022-07-23T01:05:51;8.97;;;7.77;;
14939;SDS011;11825;51.898;8.202;2022-07-23T01:10:54;8.97;;;8.07;;
14939;SDS011;11825;51.898;8.202;2022-07-23T01:15:56;10.33;;;8.47;;
14939;SDS011;11825;51.898;8.202;2022-07-23T01:20:58;10.17;;;9.17;;
14939;SDS011;11825;51.898;8.202;2022-07-23T01:25:59;10.17;;;9.10;;
14939;SDS011;11825;51.898;8.202;2022-07-23T01:31:01;13.00;;;11.70;;
14939;SDS011;11825;51.898;8.202;2022-07-23T01:36:03;10.87;;;9.87;;
14939;SDS011;11825;51.898;8.202;2022-07-23T01:41:05;12.67;;;10.77;;
14939;SDS011;11825;51.898;8.202;2022-07-23T01:46:08;11.43;;;10.30;;
14939;SDS011;11825;51.898;8.202;2022-07-23T01:51:09;11.40;;;10.07;;
14939;SDS011;11825;51.898;8.202;2022-07-23T01:56:11;10.33;;;9.33;;
14939;SDS011;11825;51.898;8.202;2022-07-23T02:01:16;11.07;;;9.60;;
14939;SDS011;11825;51.898;8.202;2022-07-23T02:06:18;12.67;;;8.93;;
14939;SDS011;11825;51.898;8.202;2022-07-23T02:11:26;8.50;;;7.70;;
14939;SDS011;11825;51.898;8.202;2022-07-23T02:16:28;9.83;;;8.83;;
14939;SDS011;11825;51.898;8.202;2022-07-23T02:21:32;9.70;;;8.70;;
14939;SDS011;11825;51.898;8.202;2022-07-23T02:26:45;11.73;;;10.40;;
14939;SDS011;11825;51.898;8.202;2022-07-23T02:32:13;11.17;;;9.83;;
14939;SDS011;11825;51.898;8.202;2022-07-23T02:37:19;10.83;;;9.90;;
14939;SDS011;11825;51.898;8.202;2022-07-23T02:42:27;10.20;;;9.17;;
14939;SDS011;11825;51.898;8.202;2022-07-23T02:47:29;10.03;;;9.03;;
14939;SDS011;11825;51.898;8.202;2022-07-23T02:52:33;10.47;;;9.43;;
14939;SDS011;11825;51.898;8.202;2022-07-23T02:57:35;11.40;;;8.73;;
14939;SDS011;11825;51.898;8.202;2022-07-23T03:02:37;9.73;;;8.77;;
14939;SDS011;11825;51.898;8.202;2022-07-23T03:07:38;11.07;;;9.63;;
14939;SDS011;11825;51.898;8.202;2022-07-23T03:12:40;10.50;;;9.40;;
14939;SDS011;11825;51.898;8.202;2022-07-23T03:17:42;10.37;;;9.37;;
14939;SDS011;11825;51.898;8.202;2022-07-23T03:22:44;9.97;;;8.97;;
14939;SDS011;11825;51.898;8.202;2022-07-23T03:27:46;10.17;;;8.83;;
14939;SDS011;11825;51.898;8.202;2022-07-23T03:32:48;11.07;;;9.97;;
14939;SDS011;11825;51.898;8.202;2022-07-23T03:37:49;11.83;;;10.80;;
14939;SDS011;11825;51.898;8.202;2022-07-23T03:42:51;11.30;;;10.33;;
14939;SDS011;11825;51.898;8.202;2022-07-23T03:47:53;10.57;;;9.50;;
14939;SDS011;11825;51.898;8.202;2022-07-23T03:52:55;14.07;;;9.93;;
14939;SDS011;11825;51.898;8.202;2022-07-23T03:57:56;10.57;;;9.47;;
14939;SDS011;11825;51.898;8.202;2022-07-23T04:08:29;10.17;;;9.27;;
14939;SDS011;11825;51.898;8.202;2022-07-23T04:13:31;10.63;;;8.73;;
14939;SDS011;11825;51.898;8.202;2022-07-23T04:18:34;9.97;;;9.07;;
14939;SDS011;11825;51.898;8.202;2022-07-23T04:23:35;13.77;;;9.90;;
14939;SDS011;11825;51.898;8.202;2022-07-23T04:28:37;9.63;;;8.77;;
14939;SDS011;11825;51.898;8.202;2022-07-23T04:33:39;12.27;;;9.87;;
14939;SDS011;11825;51.898;8.202;2022-07-23T04:38:41;10.13;;;9.13;;
14939;SDS011;11825;51.898;8.202;2022-07-23T04:43:43;10.33;;;9.33;;
14939;SDS011;11825;51.898;8.202;2022-07-23T04:48:45;13.87;;;9.50;;
14939;SDS011;11825;51.898;8.202;2022-07-23T04:53:47;11.90;;;10.80;;
14939;SDS011;11825;51.898;8.202;2022-07-23T04:58:48;12.07;;;9.23;;
14939;SDS011;11825;51.898;8.202;2022-07-23T05:03:50;11.63;;;10.53;;
14939;SDS011;11825;51.898;8.202;2022-07-23T05:08:52;10.90;;;9.77;;
14939;SDS011;11825;51.898;8.202;2022-07-23T05:13:54;13.03;;;10.23;;
14939;SDS011;11825;51.898;8.202;2022-07-23T05:18:55;10.53;;;9.63;;
14939;SDS011;11825;51.898;8.202;2022-07-23T05:23:57;13.63;;;10.83;;
14939;SDS011;11825;51.898;8.202;2022-07-23T05:28:59;10.37;;;9.37;;
14939;SDS011;11825;51.898;8.202;2022-07-23T05:34:02;13.03;;;11.40;;
14939;SDS011;11825;51.898;8.202;2022-07-23T05:39:03;11.43;;;10.37;;
14939;SDS011;11825;51.898;8.202;2022-07-23T05:44:06;10.00;;;9.10;;
14939;SDS011;11825;51.898;8.202;2022-07-23T05:49:08;10.57;;;9.47;;
14939;SDS011;11825;51.898;8.202;2022-07-23T05:54:11;8.90;;;7.97;;
14939;SDS011;11825;51.898;8.202;2022-07-23T05:59:12;12.50;;;11.20;;
14939;SDS011;11825;51.898;8.202;2022-07-23T06:04:16;9.77;;;8.30;;
14939;SDS011;11825;51.898;8.202;2022-07-23T06:09:17;10.10;;;8.27;;
14939;SDS011;11825;51.898;8.202;2022-07-23T06:14:19;9.83;;;8.53;;
14939;SDS011;11825;51.898;8.202;2022-07-23T06:19:21;9.00;;;7.37;;
14939;SDS011;11825;51.898;8.202;2022-07-23T06:24:23;8.23;;;7.43;;
14939;SDS011;11825;51.898;8.202;2022-07-23T06:29:25;10.00;;;7.20;;
14939;SDS011;11825;51.898;8.202;2022-07-23T06:34:26;8.60;;;7.00;;
14939;SDS011;11825;51.898;8.202;2022-07-23T06:39:28;7.37;;;6.63;;
14939;SDS011;11825;51.898;8.202;2022-07-23T06:44:31;8.73;;;5.40;;
14939;SDS011;11825;51.898;8.202;2022-07-23T06:49:33;7.70;;;5.40;;
14939;SDS011;11825;51.898;8.202;2022-07-23T06:54:34;7.90;;;6.83;;
14939;SDS011;11825;51.898;8.202;2022-07-23T06:59:37;8.77;;;5.73;;
14939;SDS011;11825;51.898;8.202;2022-07-23T07:04:41;6.67;;;6.00;;
14939;SDS011;11825;51.898;8.202;2022-07-23T07:09:43;7.37;;;6.37;;
14939;SDS011;11825;51.898;8.202;2022-07-23T07:14:48;8.07;;;7.30;;
14939;SDS011;11825;51.898;8.202;2022-07-23T07:19:50;6.63;;;6.07;;
14939;SDS011;11825;51.898;8.202;2022-07-23T07:24:52;10.80;;;7.07;;
14939;SDS011;11825;51.898;8.202;2022-07-23T07:29:53;7.63;;;6.83;;
14939;SDS011;11825;51.898;8.202;2022-07-23T07:34:56;8.30;;;6.33;;
14939;SDS011;11825;51.898;8.202;2022-07-23T07:39:58;7.63;;;6.90;;
14939;SDS011;11825;51.898;8.202;2022-07-23T07:45:02;7.17;;;6.47;;
14939;SDS011;11825;51.898;8.202;2022-07-23T07:50:05;8.23;;;6.47;;
14939;SDS011;11825;51.898;8.202;2022-07-23T07:55:07;8.20;;;6.67;;
14939;SDS011;11825;51.898;8.202;2022-07-23T08:00:10;6.67;;;5.77;;
14939;SDS011;11825;51.898;8.202;2022-07-23T08:05:12;8.30;;;5.37;;
14939;SDS011;11825;51.898;8.202;2022-07-23T08:10:15;4.67;;;4.23;;
14939;SDS011;11825;51.898;8.202;2022-07-23T08:15:25;7.83;;;4.30;;
14939;SDS011;11825;51.898;8.202;2022-07-23T08:20:28;4.83;;;3.60;;
14939;SDS011;11825;51.898;8.202;2022-07-23T08:25:35;8.40;;;5.10;;
14939;SDS011;11825;51.898;8.202;2022-07-23T08:30:39;6.10;;;4.47;;
14939;SDS011;11825;51.898;8.202;2022-07-23T08:35:48;5.23;;;4.13;;
14939;SDS011;11825;51.898;8.202;2022-07-23T08:40:53;4.40;;;3.97;;
14939;SDS011;11825;51.898;8.202;2022-07-23T08:46:03;9.90;;;5.53;;
14939;SDS011;11825;51.898;8.202;2022-07-23T08:51:19;5.17;;;4.70;;
14939;SDS011;11825;51.898;8.202;2022-07-23T08:56:21;3.83;;;3.37;;
14939;SDS011;11825;51.898;8.202;2022-07-23T09:01:32;4.37;;;3.30;;
14939;SDS011;11825;51.898;8.202;2022-07-23T09:06:45;9.07;;;3.87;;
14939;SDS011;11825;51.898;8.202;2022-07-23T09:12:06;4.80;;;3.70;;
14939;SDS011;11825;51.898;8.202;2022-07-23T09:17:12;4.70;;;3.50;;
14939;SDS011;11825;51.898;8.202;2022-07-23T09:22:23;3.87;;;3.53;;
14939;SDS011;11825;51.898;8.202;2022-07-23T09:33:05;3.27;;;2.87;;
14939;SDS011;11825;51.898;8.202;2022-07-23T09:38:18;4.30;;;3.03;;
14939;SDS011;11825;51.898;8.202;2022-07-23T09:43:27;3.47;;;3.13;;
14939;SDS011;11825;51.898;8.202;2022-07-23T09:48:35;4.27;;;3.77;;
14939;SDS011;11825;51.898;8.202;2022-07-23T09:53:38;6.73;;;3.53;;
14939;SDS011;11825;51.898;8.202;2022-07-23T09:58:52;3.40;;;3.10;;
14939;SDS011;11825;51.898;8.202;2022-07-23T10:04:36;3.63;;;3.33;;
14939;SDS011;11825;51.898;8.202;2022-07-23T10:09:44;2.50;;;2.30;;
14939;SDS011;11825;51.898;8.202;2022-07-23T10:14:55;5.87;;;3.47;;
14939;SDS011;11825;51.898;8.202;2022-07-23T10:20:01;6.77;;;3.07;;
14939;SDS011;11825;51.898;8.202;2022-07-23T10:36:58;4.40;;;4.00;;
14939;SDS011;11825;51.898;8.202;2022-07-23T10:42:11;11.20;;;10.13;;
14939;SDS011;11825;51.898;8.202;2022-07-23T10:47:35;4.07;;;3.37;;
14939;SDS011;11825;51.898;8.202;2022-07-23T10:58:08;6.80;;;4.73;;
14939;SDS011;11825;51.898;8.202;2022-07-23T11:03:29;4.60;;;4.20;;
14939;SDS011;11825;51.898;8.202;2022-07-23T11:08:37;5.83;;;3.20;;
14939;SDS011;11825;51.898;8.202;2022-07-23T11:18:53;4.23;;;3.57;;
14939;SDS011;11825;51.898;8.202;2022-07-23T11:24:08;3.47;;;3.17;;
14939;SDS011;11825;51.898;8.202;2022-07-23T11:39:40;9.63;;;8.77;;
14939;SDS011;11825;51.898;8.202;2022-07-23T11:44:42;4.97;;;4.43;;
14939;SDS011;11825;51.898;8.202;2022-07-23T11:49:56;13.27;;;12.03;;
14939;SDS011;11825;51.898;8.202;2022-07-23T11:55:05;6.17;;;4.73;;
14939;SDS011;11825;51.898;8.202;2022-07-23T12:00:17;3.93;;;3.60;;
14939;SDS011;11825;51.898;8.202;2022-07-23T12:05:22;6.83;;;4.47;;
14939;SDS011;11825;51.898;8.202;2022-07-23T12:10:35;6.10;;;3.00;;
14939;SDS011;11825;51.898;8.202;2022-07-23T12:15:50;2.63;;;1.53;;
14939;SDS011;11825;51.898;8.202;2022-07-23T12:20:56;4.63;;;4.27;;
14939;SDS011;11825;51.898;8.202;2022-07-23T12:26:06;10.83;;;9.77;;
14939;SDS011;11825;51.898;8.202;2022-07-23T12:31:25;3.33;;;3.13;;
14939;SDS011;11825;51.898;8.202;2022-07-23T12:36:44;2.20;;;2.03;;
14939;SDS011;11825;51.898;8.202;2022-07-23T12:48:07;1.90;;;1.80;;
14939;SDS011;11825;51.898;8.202;2022-07-23T12:59:32;2.10;;;1.90;;
14939;SDS011;11825;51.898;8.202;2022-07-23T13:04:34;15.37;;;14.27;;
14939;SDS011;11825;51.898;8.202;2022-07-23T13:09:36;3.50;;;2.27;;
14939;SDS011;11825;51.898;8.202;2022-07-23T13:14:43;1.77;;;1.47;;
14939;SDS011;11825;51.898;8.202;2022-07-23T13:19:45;3.23;;;2.63;;
14939;SDS011;11825;51.898;8.202;2022-07-23T13:25:07;5.03;;;2.70;;
14939;SDS011;11825;51.898;8.202;2022-07-23T13:30:13;3.53;;;2.23;;
14939;SDS011;11825;51.898;8.202;2022-07-23T13:35:30;2.83;;;1.90;;
14939;SDS011;11825;51.898;8.202;2022-07-23T13:40:34;2.60;;;1.53;;
14939;SDS011;11825;51.898;8.202;2022-07-23T13:45:39;2.73;;;2.20;;
14939;SDS011;11825;51.898;8.202;2022-07-23T13:50:44;3.57;;;3.27;;
14939;SDS011;11825;51.898;8.202;2022-07-23T13:55:49;2.13;;;1.73;;
14939;SDS011;11825;51.898;8.202;2022-07-23T14:00:54;2.43;;;2.23;;
14939;SDS011;11825;51.898;8.202;2022-07-23T14:05:59;1.60;;;1.50;;
14939;SDS011;11825;51.898;8.202;2022-07-23T14:11:16;2.30;;;1.97;;
14939;SDS011;11825;51.898;8.202;2022-07-23T14:16:20;1.30;;;1.20;;
14939;SDS011;11825;51.898;8.202;2022-07-23T14:21:22;1.70;;;1.60;;
14939;SDS011;11825;51.898;8.202;2022-07-23T14:26:29;1.90;;;1.73;;
14939;SDS011;11825;51.898;8.202;2022-07-23T14:31:32;1.97;;;1.73;;
14939;SDS011;11825;51.898;8.202;2022-07-23T14:36:36;8.30;;;7.53;;
14939;SDS011;11825;51.898;8.202;2022-07-23T14:41:39;8.90;;;8.17;;
14939;SDS011;11825;51.898;8.202;2022-07-23T14:46:44;4.37;;;3.03;;
14939;SDS011;11825;51.898;8.202;2022-07-23T14:51:48;2.87;;;2.60;;
14939;SDS011;11825;51.898;8.202;2022-07-23T14:56:54;3.73;;;3.43;;
14939;SDS011;11825;51.898;8.202;2022-07-23T15:01:59;2.20;;;2.10;;
14939;SDS011;11825;51.898;8.202;2022-07-23T15:07:05;5.57;;;5.07;;
14939;SDS011;11825;51.898;8.202;2022-07-23T15:12:12;8.40;;;7.67;;
14939;SDS011;11825;51.898;8.202;2022-07-23T15:17:24;4.93;;;4.50;;
14939;SDS011;11825;51.898;8.202;2022-07-23T15:22:41;3.60;;;3.30;;
14939;SDS011;11825;51.898;8.202;2022-07-23T15:27:46;8.97;;;8.23;;
14939;SDS011;11825;51.898;8.202;2022-07-23T15:32:56;2.23;;;2.13;;
14939;SDS011;11825;51.898;8.202;2022-07-23T15:38:28;4.23;;;3.93;;
14939;SDS011;11825;51.898;8.202;2022-07-23T15:43:41;4.23;;;3.33;;
14939;SDS011;11825;51.898;8.202;2022-07-23T15:48:45;2.30;;;2.10;;
14939;SDS011;11825;51.898;8.202;2022-07-23T15:53:48;3.33;;;3.03;;
14939;SDS011;11825;51.898;8.202;2022-07-23T15:58:52;2.57;;;2.33;;
14939;SDS011;11825;51.898;8.202;2022-07-23T16:04:11;2.47;;;2.27;;
14939;SDS011;11825;51.898;8.202;2022-07-23T16:09:12;5.40;;;4.87;;
14939;SDS011;11825;51.898;8.202;2022-07-23T16:14:19;10.57;;;9.57;;
14939;SDS011;11825;51.898;8.202;2022-07-23T16:19:21;3.93;;;3.50;;
14939;SDS011;11825;51.898;8.202;2022-07-23T16:24:28;3.10;;;2.83;;
14939;SDS011;11825;51.898;8.202;2022-07-23T16:29:32;3.33;;;3.03;;
14939;SDS011;11825;51.898;8.202;2022-07-23T16:34:35;1.90;;;1.80;;
14939;SDS011;11825;51.898;8.202;2022-07-23T16:39:39;5.70;;;3.57;;
14939;SDS011;11825;51.898;8.202;2022-07-23T16:44:49;17.67;;;15.97;;
14939;SDS011;11825;51.898;8.202;2022-07-23T16:49:54;5.43;;;4.93;;
14939;SDS011;11825;51.898;8.202;2022-07-23T16:54:58;7.80;;;6.67;;
14939;SDS011;11825;51.898;8.202;2022-07-23T17:00:03;3.17;;;2.90;;
14939;SDS011;11825;51.898;8.202;2022-07-23T17:05:19;4.93;;;4.43;;
14939;SDS011;11825;51.898;8.202;2022-07-23T17:10:22;2.80;;;2.60;;
14939;SDS011;11825;51.898;8.202;2022-07-23T17:15:27;4.63;;;4.23;;
14939;SDS011;11825;51.898;8.202;2022-07-23T17:20:29;2.53;;;1.80;;
14939;SDS011;11825;51.898;8.202;2022-07-23T17:25:32;4.10;;;3.77;;
14939;SDS011;11825;51.898;8.202;2022-07-23T17:30:34;3.40;;;2.77;;
14939;SDS011;11825;51.898;8.202;2022-07-23T17:35:36;1.60;;;1.50;;
14939;SDS011;11825;51.898;8.202;2022-07-23T17:40:38;4.67;;;2.40;;
14939;SDS011;11825;51.898;8.202;2022-07-23T17:45:40;3.60;;;3.30;;
14939;SDS011;11825;51.898;8.202;2022-07-23T17:50:44;3.20;;;2.00;;
14939;SDS011;11825;51.898;8.202;2022-07-23T17:55:46;2.07;;;1.97;;
14939;SDS011;11825;51.898;8.202;2022-07-23T18:00:48;2.30;;;2.13;;
14939;SDS011;11825;51.898;8.202;2022-07-23T18:05:50;4.37;;;4.07;;
14939;SDS011;11825;51.898;8.202;2022-07-23T18:10:53;2.87;;;2.37;;
14939;SDS011;11825;51.898;8.202;2022-07-23T18:15:55;3.07;;;2.43;;
14939;SDS011;11825;51.898;8.202;2022-07-23T18:20:59;2.47;;;1.97;;
14939;SDS011;11825;51.898;8.202;2022-07-23T18:26:06;3.67;;;2.10;;
14939;SDS011;11825;51.898;8.202;2022-07-23T18:31:15;2.30;;;2.20;;
14939;SDS011;11825;51.898;8.202;2022-07-23T18:36:21;2.83;;;2.63;;
14939;SDS011;11825;51.898;8.202;2022-07-23T18:41:24;3.50;;;2.17;;
14939;SDS011;11825;51.898;8.202;2022-07-23T18:46:26;2.03;;;1.87;;
14939;SDS011;11825;51.898;8.202;2022-07-23T18:51:30;2.30;;;2.10;;
14939;SDS011;11825;51.898;8.202;2022-07-23T18:56:33;1.83;;;1.73;;
14939;SDS011;11825;51.898;8.202;2022-07-23T19:01:36;2.20;;;2.00;;
14939;SDS011;11825;51.898;8.202;2022-07-23T19:06:46;2.27;;;2.00;;
14939;SDS011;11825;51.898;8.202;2022-07-23T19:11:48;1.90;;;1.80;;
14939;SDS011;11825;51.898;8.202;2022-07-23T19:16:50;2.70;;;2.47;;
14939;SDS011;11825;51.898;8.202;2022-07-23T19:33:45;2.77;;;2.57;;
14939;SDS011;11825;51.898;8.202;2022-07-23T19:50:32;3.77;;;2.47;;
14939;SDS011;11825;51.898;8.202;2022-07-23T20:02:03;2.53;;;2.33;;
14939;SDS011;11825;51.898;8.202;2022-07-23T20:26:27;2.00;;;1.80;;
14939;SDS011;11825;51.898;8.202;2022-07-23T20:37:22;6.20;;;2.40;;
14939;SDS011;11825;51.898;8.202;2022-07-23T20:50:29;3.50;;;2.63;;
14939;SDS011;11825;51.898;8.202;2022-07-23T21:26:45;4.03;;;2.70;;
14939;SDS011;11825;51.898;8.202;2022-07-23T21:32:12;4.63;;;2.43;;
14939;SDS011;11825;51.898;8.202;2022-07-23T21:37:14;3.43;;;3.00;;
14939;SDS011;11825;51.898;8.202;2022-07-23T21:43:02;19.07;;;3.00;;
14939;SDS011;11825;51.898;8.202;2022-07-23T21:47:52;3.50;;;2.57;;
14939;SDS011;11825;51.898;8.202;2022-07-23T21:52:54;3.13;;;2.83;;
14939;SDS011;11825;51.898;8.202;2022-07-23T21:57:56;3.23;;;2.43;;
14939;SDS011;11825;51.898;8.202;2022-07-23T22:03:01;3.80;;;1.93;;
14939;SDS011;11825;51.898;8.202;2022-07-23T22:08:07;4.17;;;2.57;;
14939;SDS011;11825;51.898;8.202;2022-07-23T22:13:23;3.13;;;2.50;;
14939;SDS011;11825;51.898;8.202;2022-07-23T22:18:27;4.83;;;3.40;;
14939;SDS011;11825;51.898;8.202;2022-07-23T22:23:28;4.10;;;2.87;;
14939;SDS011;11825;51.898;8.202;2022-07-23T22:28:30;3.07;;;2.53;;
14939;SDS011;11825;51.898;8.202;2022-07-23T22:33:32;3.03;;;2.17;;
14939;SDS011;11825;51.898;8.202;2022-07-23T22:38:34;2.20;;;2.10;;
14939;SDS011;11825;51.898;8.202;2022-07-23T22:43:36;3.40;;;3.10;;
14939;SDS011;11825;51.898;8.202;2022-07-23T22:48:38;4.93;;;2.80;;
14939;SDS011;11825;51.898;8.202;2022-07-23T22:53:40;3.00;;;2.20;;
14939;SDS011;11825;51.898;8.202;2022-07-23T22:58:42;3.13;;;2.43;;
14939;SDS011;11825;51.898;8.202;2022-07-23T23:03:49;2.33;;;2.13;;
14939;SDS011;11825;51.898;8.202;2022-07-23T23:08:51;3.20;;;2.90;;
14939;SDS011;11825;51.898;8.202;2022-07-23T23:13:52;2.83;;;2.47;;
14939;SDS011;11825;51.898;8.202;2022-07-23T23:18:54;2.33;;;2.13;;
14939;SDS011;11825;51.898;8.202;2022-07-23T23:23:56;2.63;;;2.50;;
14939;SDS011;11825;51.898;8.202;2022-07-23T23:28:58;3.10;;;2.87;;
14939;SDS011;11825;51.898;8.202;2022-07-23T23:34:00;3.13;;;2.93;;
14939;SDS011;11825;51.898;8.202;2022-07-23T23:39:02;6.50;;;2.73;;
14939;SDS011;11825;51.898;8.202;2022-07-23T23:44:06;3.10;;;2.90;;
14939;SDS011;11825;51.898;8.202;2022-07-23T23:49:08;5.23;;;3.17;;
14939;SDS011;11825;51.898;8.202;2022-07-23T23:54:11;3.23;;;3.03;;
14939;SDS011;11825;51.898;8.202;2022-07-23T23:59:18;4.67;;;3.23;;
